createdAt,value
2017-11-11T00:01:35.365Z,63.50
2017-11-11T00:04:02.984Z,63.67
2017-11-11T00:06:30.717Z,59.37
2017-11-11T00:08:58.460Z,52.83
2017-11-11T00:11:26.167Z,49.83
2017-11-11T00:13:53.850Z,59.50
2017-11-11T00:16:21.481Z,54.07
2017-11-11T00:18:49.090Z,55.03
2017-11-11T00:21:16.771Z,62.37
2017-11-11T00:23:44.409Z,58.30
2017-11-11T00:26:12.029Z,67.40
2017-11-11T00:28:39.752Z,71.03
2017-11-11T00:31:07.528Z,69.03
2017-11-11T00:33:35.344Z,68.60
2017-11-11T00:36:03.015Z,63.83
2017-11-11T00:38:30.653Z,70.97
2017-11-11T00:40:58.334Z,69.03
2017-11-11T00:43:26.053Z,78.97
2017-11-11T00:45:53.752Z,75.73
2017-11-11T00:48:21.477Z,69.67
2017-11-11T00:50:49.150Z,74.03
2017-11-11T00:53:16.777Z,60.40
2017-11-11T00:55:44.404Z,75.93
2017-11-11T00:58:12.086Z,70.23
2017-11-11T01:00:39.728Z,67.33
2017-11-11T01:03:07.398Z,59.50
2017-11-11T01:05:35.137Z,59.57
2017-11-11T01:08:03.603Z,51.20
2017-11-11T01:10:31.220Z,58.30
2017-11-11T01:12:58.981Z,59.13
2017-11-11T01:15:26.597Z,56.83
2017-11-11T01:17:54.272Z,60.13
2017-11-11T01:20:21.964Z,56.10
2017-11-11T01:22:49.588Z,55.53
2017-11-11T01:25:17.214Z,55.37
2017-11-11T01:27:44.963Z,50.90
2017-11-11T01:30:12.653Z,45.50
2017-11-11T01:32:40.297Z,50.13
2017-11-11T01:35:07.971Z,52.70
2017-11-11T01:37:35.590Z,53.30
2017-11-11T01:40:03.366Z,59.87
2017-11-11T01:42:31.093Z,58.40
2017-11-11T01:44:58.861Z,81.33
2017-11-11T01:47:26.730Z,89.50
2017-11-11T01:49:54.548Z,71.10
2017-11-11T01:52:22.293Z,88.83
2017-11-11T01:54:50.069Z,87.33
2017-11-11T01:57:17.826Z,91.57
2017-11-11T01:59:45.467Z,132.33
2017-11-11T02:02:13.115Z,131.40
2017-11-11T02:04:40.935Z,130.63
2017-11-11T02:07:09.004Z,111.20
2017-11-11T02:09:36.978Z,123.90
2017-11-11T02:12:04.763Z,114.70
2017-11-11T02:14:32.454Z,135.53
2017-11-11T02:17:00.083Z,79.03
2017-11-11T02:19:27.828Z,92.17
2017-11-11T02:21:55.521Z,84.60
2017-11-11T02:24:23.930Z,76.77
2017-11-11T02:26:51.666Z,86.03
2017-11-11T02:29:19.458Z,94.60
2017-11-11T02:31:47.104Z,87.37
2017-11-11T02:34:14.784Z,96.60
2017-11-11T02:36:42.460Z,95.50
2017-11-11T02:39:10.151Z,93.63
2017-11-11T02:41:37.848Z,92.43
2017-11-11T02:44:05.493Z,99.03
2017-11-11T02:46:33.207Z,96.20
2017-11-11T02:49:00.885Z,95.03
2017-11-11T02:51:28.537Z,98.63
2017-11-11T02:53:56.222Z,136.50
2017-11-11T02:56:23.976Z,72.63
2017-11-11T02:58:51.605Z,71.87
2017-11-11T03:01:19.249Z,80.50
2017-11-11T03:03:47.000Z,60.47
2017-11-11T03:06:14.635Z,53.23
2017-11-11T03:08:42.423Z,62.03
2017-11-11T03:11:10.152Z,64.33
2017-11-11T03:13:37.773Z,61.93
2017-11-11T03:16:05.520Z,84.27
2017-11-11T03:18:33.489Z,72.53
2017-11-11T03:21:01.164Z,85.63
2017-11-11T03:23:28.861Z,91.80
2017-11-11T03:25:56.721Z,101.13
2017-11-11T03:28:24.605Z,121.70
2017-11-11T03:30:52.331Z,84.60
2017-11-11T03:33:20.132Z,114.07
2017-11-11T03:35:48.892Z,78.57
2017-11-11T03:38:16.893Z,75.50
2017-11-11T03:40:44.548Z,87.00
2017-11-11T03:43:12.232Z,97.50
2017-11-11T03:45:39.913Z,94.87
2017-11-11T03:48:07.796Z,95.40
2017-11-11T03:50:35.513Z,145.87
2017-11-11T03:53:03.196Z,133.83
2017-11-11T03:55:30.931Z,160.77
2017-11-11T03:57:58.610Z,169.97
2017-11-11T04:00:26.297Z,179.47
2017-11-11T04:02:54.028Z,184.00
2017-11-11T04:05:21.681Z,169.50
2017-11-11T04:07:49.617Z,177.77
2017-11-11T04:10:17.413Z,130.37
2017-11-11T04:12:45.043Z,121.37
2017-11-11T04:15:12.704Z,112.60
2017-11-11T04:17:40.417Z,129.27
2017-11-11T04:20:08.185Z,246.70
2017-11-11T04:22:35.805Z,336.20
2017-11-11T04:25:03.544Z,376.10
2017-11-11T04:27:31.278Z,297.67
2017-11-11T04:29:58.986Z,257.77
2017-11-11T04:32:26.774Z,307.93
2017-11-11T04:34:54.475Z,282.50
2017-11-11T04:37:22.093Z,198.57
2017-11-11T04:39:49.832Z,213.80
2017-11-11T04:42:17.516Z,202.93
2017-11-11T04:44:45.354Z,231.17
2017-11-11T04:47:13.077Z,177.10
2017-11-11T04:49:40.744Z,232.17
2017-11-11T04:52:08.527Z,218.77
2017-11-11T04:54:36.245Z,250.57
2017-11-11T04:57:03.986Z,222.07
2017-11-11T04:59:31.996Z,167.23
2017-11-11T05:01:59.724Z,131.00
2017-11-11T05:04:27.505Z,127.27
2017-11-11T05:06:55.222Z,438.63
2017-11-11T05:09:22.977Z,201.67
2017-11-11T05:11:50.757Z,212.73
2017-11-11T05:14:19.332Z,170.23
2017-11-11T05:16:47.136Z,158.80
2017-11-11T05:19:14.909Z,146.03
2017-11-11T05:21:42.633Z,149.63
2017-11-11T05:24:10.452Z,187.37
2017-11-11T05:26:38.129Z,181.80
2017-11-11T05:29:05.977Z,198.03
2017-11-11T05:31:33.665Z,193.30
2017-11-11T05:34:01.399Z,157.80
2017-11-11T05:36:29.143Z,164.50
2017-11-11T05:38:56.828Z,128.90
2017-11-11T05:41:24.509Z,138.93
2017-11-11T05:43:52.212Z,123.80
2017-11-11T05:46:20.037Z,121.33
2017-11-11T05:48:47.658Z,106.40
2017-11-11T05:51:15.284Z,133.53
2017-11-11T05:53:43.021Z,121.83
2017-11-11T05:56:10.769Z,119.20
2017-11-11T05:58:38.544Z,136.63
2017-11-11T06:01:06.220Z,138.67
2017-11-11T06:03:33.856Z,125.03
2017-11-11T06:06:01.494Z,130.93
2017-11-11T06:08:29.164Z,120.37
2017-11-11T06:10:56.790Z,154.40
2017-11-11T06:13:24.477Z,129.93
2017-11-11T06:15:52.267Z,115.73
2017-11-11T06:18:20.005Z,153.87
2017-11-11T06:20:47.712Z,110.83
2017-11-11T06:23:15.511Z,106.40
2017-11-11T06:25:43.161Z,104.40
2017-11-11T06:28:10.789Z,97.90
2017-11-11T06:30:38.465Z,90.33
2017-11-11T06:33:06.139Z,82.40
2017-11-11T06:35:34.576Z,78.00
2017-11-11T06:38:02.381Z,51.33
2017-11-11T06:40:30.196Z,75.37
2017-11-11T06:42:59.223Z,55.97
2017-11-11T06:45:26.887Z,41.97
2017-11-11T06:47:54.505Z,48.90
2017-11-11T06:50:22.197Z,42.87
2017-11-11T06:52:50.068Z,39.00
2017-11-11T06:55:17.856Z,34.80
2017-11-11T06:57:45.473Z,38.03
2017-11-11T07:00:13.228Z,50.40
2017-11-11T07:02:40.956Z,47.07
2017-11-11T07:05:08.616Z,49.50
2017-11-11T07:07:36.346Z,35.30
2017-11-11T07:10:04.780Z,30.53
2017-11-11T07:12:32.532Z,34.00
2017-11-11T07:15:00.516Z,46.30
2017-11-11T07:17:28.168Z,38.47
2017-11-11T07:19:56.580Z,33.33
2017-11-11T07:22:25.163Z,34.13
2017-11-11T07:24:52.857Z,36.13
2017-11-11T07:27:20.484Z,53.90
2017-11-11T07:29:48.254Z,50.33
2017-11-11T07:32:16.101Z,48.80
2017-11-11T07:34:43.749Z,60.63
2017-11-11T07:37:11.436Z,60.43
2017-11-11T07:39:39.114Z,58.30
2017-11-11T07:42:06.737Z,51.63
2017-11-11T07:44:34.475Z,60.77
2017-11-11T07:47:02.308Z,64.17
2017-11-11T07:49:29.928Z,56.10
2017-11-11T07:51:57.632Z,69.80
2017-11-11T07:54:25.247Z,70.63
2017-11-11T07:56:52.941Z,76.47
2017-11-11T07:59:20.788Z,85.30
2017-11-11T08:01:48.517Z,72.10
2017-11-11T08:04:16.228Z,71.03
2017-11-11T08:06:43.912Z,83.30
2017-11-11T08:09:11.657Z,71.67
2017-11-11T08:11:39.357Z,81.93
2017-11-11T08:14:07.096Z,62.67
2017-11-11T08:16:34.817Z,63.37
2017-11-11T08:19:02.526Z,69.47
2017-11-11T08:21:30.265Z,63.77
2017-11-11T08:23:57.946Z,69.80
2017-11-11T08:26:25.652Z,70.50
2017-11-11T08:28:53.468Z,83.53
2017-11-11T08:31:21.184Z,67.37
2017-11-11T08:33:48.926Z,89.37
2017-11-11T08:36:16.612Z,80.43
2017-11-11T08:38:44.384Z,61.90
2017-11-11T08:41:12.068Z,77.97
2017-11-11T08:43:39.765Z,76.63
2017-11-11T08:46:07.465Z,56.57
2017-11-11T08:48:35.125Z,59.13
2017-11-11T08:51:04.108Z,54.50
2017-11-11T08:53:31.738Z,45.53
2017-11-11T08:55:59.466Z,55.90
2017-11-11T08:58:27.200Z,52.97
2017-11-11T09:00:54.896Z,51.77
2017-11-11T09:03:22.588Z,50.77
2017-11-11T09:05:50.336Z,43.40
2017-11-11T09:08:18.032Z,53.77
2017-11-11T09:10:45.648Z,56.40
2017-11-11T09:13:13.388Z,53.30
2017-11-11T09:15:41.179Z,58.60
2017-11-11T09:18:08.900Z,62.67
2017-11-11T09:20:36.641Z,59.33
2017-11-11T09:23:04.470Z,53.20
2017-11-11T09:25:32.109Z,51.53
2017-11-11T09:27:59.802Z,59.97
2017-11-11T09:30:27.432Z,65.40
2017-11-11T09:32:55.064Z,59.43
2017-11-11T09:35:22.838Z,58.23
2017-11-11T09:37:50.563Z,62.90
2017-11-11T09:40:18.279Z,56.93
2017-11-11T09:42:45.956Z,88.70
2017-11-11T09:45:13.653Z,51.90
2017-11-11T09:47:41.387Z,70.00
2017-11-11T09:50:09.125Z,89.23
2017-11-11T09:52:36.769Z,85.93
2017-11-11T09:55:04.494Z,81.70
2017-11-11T09:57:32.188Z,69.67
2017-11-11T09:59:59.876Z,73.33
2017-11-11T10:02:27.492Z,83.00
2017-11-11T10:04:55.244Z,110.93
2017-11-11T10:07:22.867Z,109.83
2017-11-11T10:09:50.606Z,125.20
2017-11-11T10:12:18.292Z,121.67
2017-11-11T10:14:45.979Z,110.27
2017-11-11T10:17:14.559Z,94.63
2017-11-11T10:19:42.374Z,96.60
2017-11-11T10:22:10.061Z,105.17
2017-11-11T10:24:37.721Z,100.57
2017-11-11T10:27:05.496Z,100.47
2017-11-11T10:29:33.129Z,107.17
2017-11-11T10:32:00.812Z,98.47
2017-11-11T10:34:28.501Z,97.30
2017-11-11T10:36:56.122Z,94.70
2017-11-11T10:39:23.749Z,87.47
2017-11-11T10:41:51.424Z,85.63
2017-11-11T10:44:19.092Z,94.93
2017-11-11T10:46:46.794Z,115.20
2017-11-11T10:49:14.492Z,130.90
2017-11-11T10:51:42.157Z,127.67
2017-11-11T10:54:09.805Z,125.80
2017-11-11T10:56:37.507Z,82.07
2017-11-11T10:59:05.128Z,84.53
2017-11-11T11:01:32.778Z,88.37
2017-11-11T11:04:00.491Z,103.33
2017-11-11T11:06:28.132Z,84.90
2017-11-11T11:08:55.758Z,115.33
2017-11-11T11:11:23.548Z,77.30
2017-11-11T11:13:51.184Z,128.00
2017-11-11T11:16:18.817Z,82.80
2017-11-11T11:18:46.546Z,84.13
2017-11-11T11:21:14.182Z,69.73
2017-11-11T11:23:41.922Z,71.83
2017-11-11T11:26:09.708Z,68.93
2017-11-11T11:28:37.393Z,53.93
2017-11-11T11:31:05.033Z,63.00
2017-11-11T11:33:32.780Z,73.60
2017-11-11T11:36:00.464Z,59.80
2017-11-11T11:38:28.144Z,57.03
2017-11-11T11:40:55.845Z,62.67
2017-11-11T11:43:23.476Z,62.07
2017-11-11T11:45:51.134Z,43.80
2017-11-11T11:48:18.840Z,47.63
2017-11-11T11:50:46.465Z,44.73
2017-11-11T11:53:14.093Z,49.30
2017-11-11T11:55:41.856Z,42.03
2017-11-11T11:58:09.602Z,53.70
2017-11-11T12:00:37.304Z,63.67
2017-11-11T12:03:05.001Z,66.40
2017-11-11T12:05:32.668Z,75.10
2017-11-11T12:08:00.325Z,62.17
2017-11-11T12:10:28.093Z,68.83
2017-11-11T12:12:55.720Z,67.83
2017-11-11T12:15:23.348Z,67.03
2017-11-11T12:17:51.084Z,78.53
2017-11-11T12:20:18.716Z,74.97
2017-11-11T12:22:46.348Z,86.97
2017-11-11T12:25:14.149Z,82.90
2017-11-11T12:27:41.795Z,67.13
2017-11-11T12:30:09.464Z,61.53
2017-11-11T12:32:37.229Z,59.57
2017-11-11T12:35:04.965Z,66.77
2017-11-11T12:37:32.762Z,64.50
2017-11-11T12:40:00.443Z,73.70
2017-11-11T12:42:28.124Z,66.10
2017-11-11T12:44:55.748Z,74.73
2017-11-11T12:47:23.438Z,65.43
2017-11-11T12:49:51.138Z,66.37
2017-11-11T12:52:18.817Z,71.13
2017-11-11T12:54:46.646Z,51.23
2017-11-11T12:57:14.340Z,76.27
2017-11-11T12:59:42.053Z,63.43
2017-11-11T13:02:09.729Z,67.80
2017-11-11T13:04:37.373Z,56.03
2017-11-11T13:07:05.022Z,52.77
2017-11-11T13:09:32.696Z,61.67
2017-11-11T13:12:00.361Z,63.87
2017-11-11T13:14:28.043Z,61.93
2017-11-11T13:16:55.835Z,54.87
2017-11-11T13:19:23.517Z,62.77
2017-11-11T13:21:51.195Z,58.43
2017-11-11T13:24:18.885Z,64.97
2017-11-11T13:26:46.544Z,61.80
2017-11-11T13:29:14.248Z,46.47
2017-11-11T13:31:42.150Z,65.40
2017-11-11T13:34:09.893Z,43.37
2017-11-11T13:36:37.597Z,39.63
2017-11-11T13:39:05.349Z,41.13
2017-11-11T13:41:32.980Z,50.60
2017-11-11T13:44:00.761Z,58.37
2017-11-11T13:46:28.550Z,48.93
2017-11-11T13:48:56.184Z,51.73
2017-11-11T13:51:23.983Z,66.20
2017-11-11T13:53:51.689Z,71.50
2017-11-11T13:56:19.400Z,72.10
2017-11-11T13:58:47.228Z,58.70
2017-11-11T14:01:15.008Z,75.40
2017-11-11T14:03:42.773Z,73.20
2017-11-11T14:06:10.393Z,68.20
2017-11-11T14:08:38.146Z,75.00
2017-11-11T14:11:05.805Z,87.90
2017-11-11T14:13:33.564Z,130.07
2017-11-11T14:16:01.280Z,119.33
2017-11-11T14:18:28.980Z,128.73
2017-11-11T14:20:56.653Z,121.70
2017-11-11T14:23:24.360Z,145.13
2017-11-11T14:25:52.092Z,110.60
2017-11-11T14:28:19.745Z,116.53
2017-11-11T14:30:47.465Z,110.27
2017-11-11T14:33:15.101Z,116.33
2017-11-11T14:35:42.861Z,91.57
2017-11-11T14:38:10.564Z,114.70
2017-11-11T14:40:38.309Z,112.87
2017-11-11T14:43:06.025Z,113.17
2017-11-11T14:45:33.809Z,199.93
2017-11-11T14:48:01.448Z,158.80
2017-11-11T14:50:29.197Z,164.30
2017-11-11T14:52:56.953Z,141.77
2017-11-11T14:55:24.640Z,196.37
2017-11-11T14:57:52.377Z,184.13
2017-11-11T15:00:20.077Z,177.10
2017-11-11T15:02:47.765Z,206.27
2017-11-11T15:05:15.425Z,204.13
2017-11-11T15:07:43.141Z,247.83
2017-11-11T15:10:10.825Z,250.30
2017-11-11T15:12:38.576Z,240.77
2017-11-11T15:15:06.325Z,229.27
2017-11-11T15:17:33.983Z,215.87
2017-11-11T15:20:01.643Z,194.90
2017-11-11T15:22:29.433Z,209.83
2017-11-11T15:24:57.129Z,207.40
2017-11-11T15:27:24.809Z,197.73
2017-11-11T15:29:52.520Z,192.23
2017-11-11T15:32:20.165Z,199.07
2017-11-11T15:34:47.797Z,205.20
2017-11-11T15:37:15.502Z,241.80
2017-11-11T15:39:43.138Z,228.37
2017-11-11T15:42:10.829Z,197.30
2017-11-11T15:44:38.613Z,210.27
2017-11-11T15:47:06.329Z,204.13
2017-11-11T15:49:34.008Z,204.03
2017-11-11T15:52:01.919Z,182.37
2017-11-11T15:54:29.728Z,197.43
2017-11-11T15:56:57.412Z,186.77
2017-11-11T15:59:25.154Z,158.10
2017-11-11T16:01:52.792Z,148.93
2017-11-11T16:04:20.452Z,135.23
2017-11-11T16:06:48.148Z,168.93
2017-11-11T16:09:15.798Z,143.87
2017-11-11T16:11:43.448Z,137.60
2017-11-11T16:14:11.230Z,128.73
2017-11-11T16:16:38.981Z,131.37
2017-11-11T16:19:06.665Z,159.73
2017-11-11T16:21:34.341Z,178.77
2017-11-11T16:24:02.124Z,198.17
2017-11-11T16:26:29.804Z,195.33
2017-11-11T16:28:57.943Z,226.70
2017-11-11T16:31:25.636Z,187.80
2017-11-11T16:33:53.266Z,175.10
2017-11-11T16:36:21.110Z,177.43
2017-11-11T16:38:48.773Z,201.43
2017-11-11T16:41:16.609Z,167.67
2017-11-11T16:43:44.404Z,185.70
2017-11-11T16:46:12.290Z,172.63
2017-11-11T16:48:39.985Z,159.07
2017-11-11T16:51:07.675Z,171.80
2017-11-11T16:53:35.425Z,191.10
2017-11-11T16:56:03.062Z,162.17
2017-11-11T16:58:30.850Z,164.77
2017-11-11T17:00:58.577Z,153.10
2017-11-11T17:03:26.200Z,140.80
2017-11-11T17:05:53.979Z,141.13
2017-11-11T17:08:21.605Z,155.67
2017-11-11T17:10:49.248Z,165.80
2017-11-11T17:13:16.984Z,157.67
2017-11-11T17:15:44.640Z,161.63
2017-11-11T17:18:12.455Z,191.60
2017-11-11T17:20:40.188Z,344.87
2017-11-11T17:23:07.818Z,299.67
2017-11-11T17:25:35.512Z,296.67
2017-11-11T17:28:03.198Z,221.57
2017-11-11T17:30:30.830Z,169.83
2017-11-11T17:32:58.464Z,187.20
2017-11-11T17:35:26.203Z,211.17
2017-11-11T17:37:53.909Z,343.43
2017-11-11T17:40:21.573Z,452.73
2017-11-11T17:42:49.259Z,620.10
2017-11-11T17:45:16.965Z,431.13
2017-11-11T17:47:44.674Z,285.50
2017-11-11T17:50:12.409Z,285.30
2017-11-11T17:52:40.101Z,211.43
2017-11-11T17:55:07.789Z,196.60
2017-11-11T17:57:35.545Z,167.90
2017-11-11T18:00:03.238Z,149.70
2017-11-11T18:02:30.940Z,151.67
2017-11-11T18:04:58.772Z,146.67
2017-11-11T18:07:26.416Z,163.03
2017-11-11T18:09:54.109Z,160.60
2017-11-11T18:12:21.800Z,139.97
2017-11-11T18:14:49.452Z,119.00
2017-11-11T18:17:17.093Z,119.77
2017-11-11T18:19:44.874Z,128.73
2017-11-11T18:22:12.520Z,121.93
2017-11-11T18:24:40.233Z,151.00
2017-11-11T18:27:07.940Z,177.03
2017-11-11T18:29:35.627Z,159.30
2017-11-11T18:32:03.309Z,150.53
2017-11-11T18:34:31.062Z,149.93
2017-11-11T18:36:58.744Z,150.40
2017-11-11T18:39:26.431Z,138.63
2017-11-11T18:41:54.113Z,136.70
2017-11-11T18:44:21.744Z,122.47
2017-11-11T18:46:49.417Z,137.80
2017-11-11T18:49:17.269Z,149.07
2017-11-11T18:51:44.925Z,131.10
2017-11-11T18:54:12.748Z,141.20
2017-11-11T18:56:40.436Z,168.90
2017-11-11T18:59:08.179Z,188.40
2017-11-11T19:01:35.951Z,185.00
2017-11-11T19:04:03.794Z,165.83
2017-11-11T19:06:31.433Z,168.67
2017-11-11T19:08:59.077Z,150.57
2017-11-11T19:11:26.844Z,189.93
2017-11-11T19:13:54.504Z,265.47
2017-11-11T19:16:22.233Z,283.63
2017-11-11T19:18:49.908Z,212.97
2017-11-11T19:21:17.621Z,168.97
2017-11-11T19:23:45.244Z,138.10
2017-11-11T19:26:12.954Z,135.00
2017-11-11T19:28:40.730Z,136.77
2017-11-11T19:31:08.370Z,140.30
2017-11-11T19:33:37.043Z,131.93
2017-11-11T19:36:04.766Z,138.87
2017-11-11T19:38:32.469Z,129.03
2017-11-11T19:41:00.165Z,138.97
2017-11-11T19:43:27.892Z,136.57
2017-11-11T19:45:55.576Z,137.27
2017-11-11T19:48:23.249Z,134.27
2017-11-11T19:50:50.898Z,126.07
2017-11-11T19:53:18.526Z,104.30
2017-11-11T19:55:46.218Z,96.27
2017-11-11T19:58:13.845Z,120.93
2017-11-11T20:00:41.481Z,125.93
2017-11-11T20:03:09.164Z,116.23
2017-11-11T20:05:36.786Z,93.10
2017-11-11T20:08:04.428Z,97.40
2017-11-11T20:10:32.153Z,89.90
2017-11-11T20:12:59.853Z,84.97
2017-11-11T20:15:27.533Z,100.97
2017-11-11T20:17:55.226Z,102.10
2017-11-11T20:20:22.846Z,104.60
2017-11-11T20:22:50.571Z,92.07
2017-11-11T20:25:18.317Z,105.70
2017-11-11T20:27:46.048Z,97.17
2017-11-11T20:30:13.789Z,108.37
2017-11-11T20:32:41.529Z,114.67
2017-11-11T20:35:09.296Z,112.33
2017-11-11T20:37:36.929Z,99.80
2017-11-11T20:40:04.649Z,104.10
2017-11-11T20:42:32.284Z,109.37
2017-11-11T20:44:59.975Z,111.63
2017-11-11T20:47:27.660Z,101.30
2017-11-11T20:49:55.338Z,58.70
2017-11-11T20:52:23.002Z,53.10
2017-11-11T20:54:50.680Z,73.00
2017-11-11T20:57:18.317Z,82.40
2017-11-11T20:59:46.003Z,99.03
2017-11-11T21:02:13.701Z,102.80
2017-11-11T21:04:41.328Z,88.33
2017-11-11T21:07:09.003Z,81.50
2017-11-11T21:09:37.507Z,86.10
2017-11-11T21:12:05.201Z,104.37
2017-11-11T21:14:32.822Z,89.20
2017-11-11T21:17:00.576Z,78.03
2017-11-11T21:19:28.312Z,77.80
2017-11-11T21:21:56.877Z,80.00
2017-11-11T21:24:24.860Z,80.07
2017-11-11T21:26:52.528Z,66.57
2017-11-11T21:29:20.242Z,77.07
2017-11-11T21:31:48.057Z,78.70
2017-11-11T21:34:15.743Z,76.37
2017-11-11T21:36:43.365Z,77.33
2017-11-11T21:39:11.140Z,86.63
2017-11-11T21:41:38.904Z,66.80
2017-11-11T21:44:06.525Z,43.80
2017-11-11T21:46:34.219Z,53.20
2017-11-11T21:49:01.832Z,39.57
2017-11-11T21:51:29.448Z,47.87
2017-11-11T21:53:57.125Z,38.77
2017-11-11T21:56:24.743Z,34.70
2017-11-11T21:58:52.354Z,33.40
2017-11-11T22:01:20.065Z,43.87
2017-11-11T22:03:47.761Z,45.03
2017-11-11T22:06:15.526Z,32.23
2017-11-11T22:08:43.292Z,28.87
2017-11-11T22:11:10.955Z,28.60
2017-11-11T22:13:38.567Z,31.60
2017-11-11T22:16:06.228Z,28.83
2017-11-11T22:18:33.838Z,26.37
2017-11-11T22:21:01.511Z,26.20
2017-11-11T22:23:29.281Z,23.80
2017-11-11T22:25:56.936Z,24.70
2017-11-11T22:28:24.701Z,28.83
2017-11-11T22:30:52.466Z,27.27
2017-11-11T22:33:20.169Z,30.43
2017-11-11T22:35:47.796Z,35.80
2017-11-11T22:38:15.574Z,26.80
2017-11-11T22:40:43.198Z,19.70
2017-11-11T22:43:10.813Z,20.30
2017-11-11T22:45:38.540Z,19.47
2017-11-11T22:48:06.180Z,19.53
2017-11-11T22:50:33.845Z,20.80
2017-11-11T22:53:01.598Z,23.90
2017-11-11T22:55:29.300Z,23.77
2017-11-11T22:57:57.133Z,31.60
2017-11-11T23:00:41.517Z,27.60
2017-11-11T23:03:09.190Z,28.80
2017-11-11T23:05:36.857Z,26.40
2017-11-11T23:08:04.668Z,27.50
2017-11-11T23:10:32.385Z,24.73
2017-11-11T23:12:59.993Z,39.90
2017-11-11T23:15:27.664Z,38.03
2017-11-11T23:17:55.276Z,36.80
2017-11-11T23:20:22.932Z,37.10
2017-11-11T23:22:50.765Z,35.43
2017-11-11T23:25:18.382Z,31.30
2017-11-11T23:27:46.055Z,34.87
2017-11-11T23:30:13.728Z,30.50
2017-11-11T23:32:41.360Z,28.10
2017-11-11T23:35:09.016Z,27.37
2017-11-11T23:37:36.677Z,29.40
2017-11-11T23:40:04.369Z,32.90
2017-11-11T23:42:32.053Z,30.53
2017-11-11T23:44:59.813Z,25.67
2017-11-11T23:47:27.493Z,23.70
2017-11-11T23:49:55.201Z,26.80
2017-11-11T23:52:22.877Z,26.73
2017-11-11T23:54:50.573Z,27.33
2017-11-11T23:57:18.280Z,31.33
2017-11-11T23:59:45.949Z,31.73
